Schedule Details


Flight Number: CTN531
Departure: Pulkovo (ULLI) at 18:50
Arrival: Franjo Tudman (LDZA) at 20:45
Route: TURAL?B141?RANVA?P863?RESMO?M155?VALGA?M985?BOKSU?M857?SUW?M985?EVINA?N744?TUSIN?M984?MIKOV?DCT?WGM?DCT?PETOV

Weather Information
ULLI 211400Z 28009MPS 9999 FEW028CB BKN040 17/10 Q1005 R28R/090060 TEMPO 2100 -TSRA BKN007 BKN015CB
LDZA 211400Z 08004KT 010V170 CAVOK 32/16 Q1015 NOSIG
Schedule Frequency

Route Map